createdAt,value
2023-03-11T00:00:32.751Z,0.00
2023-03-11T00:01:32.766Z,0.00
2023-03-11T00:02:32.730Z,0.00
2023-03-11T00:03:32.904Z,0.00
2023-03-11T00:04:32.722Z,0.00
2023-03-11T00:05:32.747Z,0.00
2023-03-11T00:06:32.670Z,0.00
2023-03-11T00:07:32.677Z,0.00
2023-03-11T00:08:32.688Z,0.00
2023-03-11T00:09:32.623Z,0.00
2023-03-11T00:10:32.614Z,0.00
2023-03-11T00:11:32.620Z,0.00
2023-03-11T00:12:32.602Z,0.00
2023-03-11T00:13:32.562Z,0.00
2023-03-11T00:14:32.549Z,0.00
2023-03-11T00:15:32.527Z,0.00
2023-03-11T00:16:32.575Z,0.00
2023-03-11T00:17:32.498Z,0.00
2023-03-11T00:18:32.483Z,0.00
2023-03-11T00:19:32.475Z,0.00
2023-03-11T00:20:32.470Z,0.00
2023-03-11T00:21:32.435Z,0.00
2023-03-11T00:22:32.414Z,0.00
2023-03-11T00:23:32.404Z,0.00
2023-03-11T00:24:32.426Z,0.00
2023-03-11T00:25:32.370Z,0.00
2023-03-11T00:26:32.363Z,0.00
2023-03-11T00:27:32.354Z,0.00
2023-03-11T00:28:34.341Z,0.00
2023-03-11T00:29:32.334Z,0.00
2023-03-11T00:30:32.422Z,0.00
2023-03-11T00:31:32.497Z,0.00
2023-03-11T00:32:32.299Z,0.00
2023-03-11T00:33:32.283Z,0.00
2023-03-11T00:34:32.254Z,0.00
2023-03-11T00:35:32.338Z,0.00
2023-03-11T00:36:32.224Z,0.00
2023-03-11T00:37:32.227Z,0.00
2023-03-11T00:38:32.229Z,0.00
2023-03-11T00:39:32.177Z,0.00
2023-03-11T00:40:32.179Z,0.00
2023-03-11T00:41:32.143Z,0.00
2023-03-11T00:42:32.162Z,0.00
2023-03-11T00:43:32.119Z,0.00
2023-03-11T00:44:32.105Z,0.00
2023-03-11T00:45:32.090Z,0.00
2023-03-11T00:46:32.332Z,0.00
2023-03-11T00:47:32.055Z,0.00
2023-03-11T00:48:32.077Z,0.00
2023-03-11T00:49:32.019Z,0.00
2023-03-11T00:50:32.027Z,0.00
2023-03-11T00:51:34.205Z,0.00
2023-03-11T00:52:31.970Z,0.00
2023-03-11T00:53:31.973Z,0.00
2023-03-11T00:54:31.959Z,0.00
2023-03-11T00:55:31.934Z,0.00
2023-03-11T00:56:31.939Z,0.00
2023-03-11T00:57:31.915Z,0.00
2023-03-11T00:58:31.894Z,0.00
2023-03-11T00:59:31.870Z,0.00
2023-03-11T01:00:31.868Z,0.00
2023-03-11T01:01:31.928Z,0.00
2023-03-11T01:02:31.845Z,0.00
2023-03-11T01:03:31.806Z,0.00
2023-03-11T01:04:31.814Z,0.00
2023-03-11T01:05:31.781Z,0.00
2023-03-11T01:06:43.152Z,0.00
2023-03-11T01:07:31.771Z,0.00
2023-03-11T01:08:31.733Z,0.00
2023-03-11T01:09:31.754Z,0.00
2023-03-11T01:10:31.710Z,0.00
2023-03-11T01:11:32.095Z,0.00
2023-03-11T01:12:31.695Z,0.00
2023-03-11T01:13:31.682Z,0.00
2023-03-11T01:14:31.675Z,0.00
2023-03-11T01:15:31.687Z,0.00
2023-03-11T01:16:31.624Z,0.00
2023-03-11T01:17:31.610Z,0.00
2023-03-11T01:18:31.598Z,0.00
2023-03-11T01:19:31.567Z,0.00
2023-03-11T01:20:31.570Z,0.00
2023-03-11T01:21:31.562Z,0.00
2023-03-11T01:22:31.742Z,0.00
2023-03-11T01:23:31.524Z,0.00
2023-03-11T01:24:31.717Z,0.00
2023-03-11T01:25:31.490Z,0.00
2023-03-11T01:26:31.465Z,0.00
2023-03-11T01:27:31.456Z,0.00
2023-03-11T01:28:31.460Z,0.00
2023-03-11T01:29:31.630Z,0.00
2023-03-11T01:30:31.428Z,0.00
2023-03-11T01:31:31.534Z,0.00
2023-03-11T01:32:31.401Z,0.00
2023-03-11T01:33:31.572Z,0.00
2023-03-11T01:34:31.357Z,0.00
2023-03-11T01:35:31.406Z,0.00
2023-03-11T01:36:31.314Z,0.00
2023-03-11T01:37:31.295Z,0.00
2023-03-11T01:38:31.282Z,0.00
2023-03-11T01:39:31.477Z,0.00
2023-03-11T01:40:31.250Z,0.00
2023-03-11T01:41:31.251Z,0.00
2023-03-11T01:42:31.241Z,0.00
2023-03-11T01:43:31.225Z,0.00
2023-03-11T01:44:31.217Z,0.00
2023-03-11T01:45:31.182Z,0.00
2023-03-11T01:46:31.267Z,0.00
2023-03-11T01:47:31.167Z,0.00
2023-03-11T01:48:31.358Z,0.00
2023-03-11T01:49:31.149Z,0.00
2023-03-11T01:50:31.112Z,0.00
2023-03-11T01:51:31.100Z,0.00
2023-03-11T01:52:31.075Z,0.00
2023-03-11T01:53:31.078Z,0.00
2023-03-11T01:54:31.049Z,0.00
2023-03-11T01:55:31.024Z,0.00
2023-03-11T01:56:31.010Z,0.00
2023-03-11T01:57:30.991Z,0.00
2023-03-11T01:58:30.996Z,0.00
2023-03-11T01:59:30.985Z,0.00
2023-03-11T02:00:30.985Z,0.00
2023-03-11T02:01:30.987Z,0.00
2023-03-11T02:02:31.012Z,0.00
2023-03-11T02:03:30.921Z,0.00
2023-03-11T02:04:30.894Z,0.00
2023-03-11T02:05:30.876Z,0.00
2023-03-11T02:06:30.869Z,0.00
2023-03-11T02:07:30.849Z,0.00
2023-03-11T02:08:30.853Z,0.00
2023-03-11T02:09:30.853Z,0.00
2023-03-11T02:10:31.013Z,0.00
2023-03-11T02:11:30.994Z,0.00
2023-03-11T02:12:31.396Z,0.00
2023-03-11T02:13:30.769Z,0.00
2023-03-11T02:14:30.759Z,0.00
2023-03-11T02:15:30.744Z,0.00
2023-03-11T02:16:30.870Z,0.00
2023-03-11T02:17:30.734Z,0.00
2023-03-11T02:18:30.704Z,0.00
2023-03-11T02:19:30.894Z,0.00
2023-03-11T02:20:30.666Z,0.00
2023-03-11T02:21:30.648Z,0.00
2023-03-11T02:22:30.647Z,0.00
2023-03-11T02:23:30.654Z,0.00
2023-03-11T02:24:30.613Z,0.00
2023-03-11T02:25:30.579Z,0.00
2023-03-11T02:26:30.570Z,0.00
2023-03-11T02:27:30.768Z,0.00
2023-03-11T02:28:30.556Z,0.00
2023-03-11T02:29:30.538Z,0.00
2023-03-11T02:30:30.716Z,0.00
2023-03-11T02:31:30.518Z,0.00
2023-03-11T02:32:30.769Z,0.00
2023-03-11T02:33:30.507Z,0.00
2023-03-11T02:34:30.452Z,0.00
2023-03-11T02:35:30.581Z,0.00
2023-03-11T02:36:30.428Z,0.00
2023-03-11T02:37:30.411Z,0.00
2023-03-11T02:38:30.460Z,0.00
2023-03-11T02:39:30.392Z,0.00
2023-03-11T02:40:30.400Z,0.00
2023-03-11T02:41:30.376Z,0.00
2023-03-11T02:42:30.387Z,0.00
2023-03-11T02:43:30.321Z,0.00
2023-03-11T02:44:30.298Z,0.00
2023-03-11T02:45:30.335Z,0.00
2023-03-11T02:46:30.321Z,0.00
2023-03-11T02:47:30.272Z,0.00
2023-03-11T02:48:30.276Z,0.00
2023-03-11T02:49:30.245Z,0.00
2023-03-11T02:50:30.462Z,0.00
2023-03-11T02:51:30.213Z,0.00
2023-03-11T02:52:30.185Z,0.00
2023-03-11T02:53:30.207Z,0.00
2023-03-11T02:54:30.179Z,0.00
2023-03-11T02:55:30.284Z,0.00
2023-03-11T02:56:30.147Z,0.00
2023-03-11T02:57:30.140Z,0.00
2023-03-11T02:58:30.088Z,0.00
2023-03-11T02:59:30.098Z,0.00
2023-03-11T03:00:30.079Z,0.00
2023-03-11T03:01:30.054Z,0.00
2023-03-11T03:02:30.038Z,0.00
2023-03-11T03:03:30.128Z,0.00
2023-03-11T03:04:30.242Z,0.00
2023-03-11T03:05:30.169Z,0.00
2023-03-11T03:06:30.001Z,0.00
2023-03-11T03:07:29.981Z,0.00
2023-03-11T03:08:30.110Z,0.00
2023-03-11T03:09:29.928Z,0.00
2023-03-11T03:10:29.966Z,0.00
2023-03-11T03:11:29.939Z,0.00
2023-03-11T03:12:30.075Z,0.00
2023-03-11T03:13:29.938Z,0.00
2023-03-11T03:14:29.875Z,0.00
2023-03-11T03:15:29.844Z,0.00
2023-03-11T03:16:29.967Z,0.00
2023-03-11T03:17:29.867Z,0.00
2023-03-11T03:18:29.845Z,0.00
2023-03-11T03:19:29.805Z,0.00
2023-03-11T03:20:29.826Z,0.00
2023-03-11T03:21:29.759Z,0.00
2023-03-11T03:22:29.757Z,0.00
2023-03-11T03:23:29.779Z,0.00
2023-03-11T03:24:29.726Z,0.00
2023-03-11T03:25:29.723Z,0.00
2023-03-11T03:26:29.684Z,0.00
2023-03-11T03:27:29.667Z,0.00
2023-03-11T03:28:29.685Z,0.00
2023-03-11T03:29:29.654Z,0.00
2023-03-11T03:30:29.661Z,0.00
2023-03-11T03:31:29.615Z,0.00
2023-03-11T03:32:29.669Z,0.00
2023-03-11T03:33:29.576Z,0.00
2023-03-11T03:34:29.791Z,0.00
2023-03-11T03:35:29.560Z,0.00
2023-03-11T03:36:29.564Z,0.00
2023-03-11T03:37:29.513Z,0.00
2023-03-11T03:38:29.506Z,0.00
2023-03-11T03:39:30.758Z,0.00
2023-03-11T03:40:29.475Z,0.00
2023-03-11T03:41:29.479Z,0.00
2023-03-11T03:42:29.534Z,0.00
2023-03-11T03:43:29.520Z,0.00
2023-03-11T03:44:29.457Z,0.00
2023-03-11T03:45:29.429Z,0.00
2023-03-11T03:46:29.404Z,0.00
2023-03-11T03:47:29.390Z,0.00
2023-03-11T03:48:29.351Z,0.00
2023-03-11T03:49:29.355Z,0.00
2023-03-11T03:50:29.435Z,0.00
2023-03-11T03:51:29.315Z,0.00
2023-03-11T03:52:29.319Z,0.00
2023-03-11T03:53:29.289Z,0.00
2023-03-11T03:54:29.304Z,0.00
2023-03-11T03:55:29.249Z,0.00
2023-03-11T03:56:29.264Z,0.00
2023-03-11T03:57:29.252Z,0.00
2023-03-11T03:58:29.235Z,0.00
2023-03-11T03:59:29.209Z,0.00
2023-03-11T04:00:29.218Z,0.00
2023-03-11T04:01:29.165Z,0.00
2023-03-11T04:02:29.269Z,0.00
2023-03-11T04:03:29.169Z,0.00
2023-03-11T04:04:29.138Z,0.00
2023-03-11T04:05:29.206Z,0.00
2023-03-11T04:06:29.090Z,0.00
2023-03-11T04:07:29.067Z,0.00
2023-03-11T04:08:29.092Z,0.00
2023-03-11T04:09:29.095Z,0.00
2023-03-11T04:10:29.051Z,0.00
2023-03-11T04:11:29.078Z,0.00
2023-03-11T04:12:29.052Z,0.00
2023-03-11T04:13:29.031Z,0.00
2023-03-11T04:14:28.995Z,0.00
2023-03-11T04:15:28.956Z,0.00
2023-03-11T04:16:28.957Z,0.00
2023-03-11T04:17:28.916Z,0.00
2023-03-11T04:18:28.953Z,0.00
2023-03-11T04:19:28.899Z,0.00
2023-03-11T04:20:28.873Z,0.00
2023-03-11T04:21:28.905Z,0.00
2023-03-11T04:22:28.945Z,0.00
2023-03-11T04:23:28.870Z,0.00
2023-03-11T04:24:28.845Z,0.00
2023-03-11T04:25:28.790Z,0.00
2023-03-11T04:26:28.823Z,0.00
2023-03-11T04:27:28.820Z,0.00
2023-03-11T04:28:28.749Z,0.00
2023-03-11T04:29:28.742Z,0.00
2023-03-11T04:30:28.730Z,0.00
2023-03-11T04:31:28.754Z,0.00
2023-03-11T04:32:28.743Z,0.00
2023-03-11T04:33:28.724Z,0.00
2023-03-11T04:34:28.712Z,0.00
2023-03-11T04:35:28.644Z,0.00
2023-03-11T04:36:28.680Z,0.00
2023-03-11T04:37:28.621Z,0.00
2023-03-11T04:38:28.660Z,0.00
2023-03-11T04:39:28.601Z,0.00
2023-03-11T04:40:28.611Z,0.00
2023-03-11T04:41:28.583Z,0.00
2023-03-11T04:42:28.577Z,0.00
2023-03-11T04:43:28.536Z,0.00
2023-03-11T04:44:28.633Z,0.00
2023-03-11T04:45:28.522Z,0.00
2023-03-11T04:46:28.530Z,0.00
2023-03-11T04:47:28.520Z,0.00
2023-03-11T04:48:28.503Z,0.00
2023-03-11T04:49:28.494Z,0.00
2023-03-11T04:50:28.447Z,0.00
2023-03-11T04:51:28.445Z,0.00
2023-03-11T04:52:28.437Z,0.00
2023-03-11T04:53:28.400Z,0.00
2023-03-11T04:54:28.381Z,0.00
2023-03-11T04:55:28.385Z,0.00
2023-03-11T04:56:28.355Z,0.00
2023-03-11T04:57:28.371Z,0.00
2023-03-11T04:58:28.322Z,0.00
2023-03-11T04:59:28.287Z,0.00
2023-03-11T05:00:28.303Z,0.00
2023-03-11T05:01:28.338Z,0.00
2023-03-11T05:02:28.230Z,0.00
2023-03-11T05:03:28.300Z,0.00
2023-03-11T05:04:28.346Z,0.00
2023-03-11T05:05:28.195Z,0.00
2023-03-11T05:06:28.193Z,0.00
2023-03-11T05:07:28.224Z,0.00
2023-03-11T05:08:28.197Z,0.00
2023-03-11T05:09:28.162Z,0.00
2023-03-11T05:10:30.124Z,0.00
2023-03-11T05:11:28.115Z,0.00
2023-03-11T05:12:28.319Z,0.00
2023-03-11T05:13:28.072Z,0.00
2023-03-11T05:14:28.073Z,0.00
2023-03-11T05:15:28.037Z,0.00
2023-03-11T05:16:28.160Z,0.00
2023-03-11T05:17:28.149Z,0.00
2023-03-11T05:18:28.027Z,0.00
2023-03-11T05:19:28.010Z,0.00
2023-03-11T05:20:27.976Z,4.00
2023-03-11T05:21:27.963Z,0.00
2023-03-11T05:22:28.000Z,0.00
2023-03-11T05:23:27.999Z,4.00
2023-03-11T05:24:27.933Z,4.00
2023-03-11T05:25:27.913Z,0.00
2023-03-11T05:26:27.894Z,4.00
2023-03-11T05:27:27.875Z,8.00
2023-03-11T05:28:27.932Z,8.00
2023-03-11T05:29:27.884Z,8.00
2023-03-11T05:30:27.839Z,12.00
2023-03-11T05:31:28.074Z,12.00
2023-03-11T05:32:27.853Z,12.00
2023-03-11T05:33:27.779Z,20.00
2023-03-11T05:34:27.820Z,20.00
2023-03-11T05:35:27.864Z,20.00
2023-03-11T05:36:27.720Z,24.00
2023-03-11T05:37:27.747Z,24.00
2023-03-11T05:38:27.702Z,28.00
2023-03-11T05:39:27.718Z,32.00
2023-03-11T05:40:27.707Z,40.00
2023-03-11T05:41:27.669Z,40.00
2023-03-11T05:42:27.682Z,44.00
2023-03-11T05:43:27.675Z,48.00
2023-03-11T05:44:27.695Z,52.00
2023-03-11T05:45:27.621Z,56.00
2023-03-11T05:46:27.670Z,60.00
2023-03-11T05:47:27.590Z,60.00
2023-03-11T05:48:27.620Z,64.00
2023-03-11T05:49:27.561Z,60.00
2023-03-11T05:50:27.658Z,64.00
2023-03-11T05:51:27.583Z,68.00
2023-03-11T05:52:27.524Z,72.00
2023-03-11T05:53:27.525Z,72.00
2023-03-11T05:54:27.489Z,80.00
2023-03-11T05:55:27.484Z,84.00
2023-03-11T05:56:27.475Z,92.00
2023-03-11T05:57:27.629Z,104.00
2023-03-11T05:58:27.469Z,116.00
2023-03-11T05:59:27.418Z,132.00
2023-03-11T06:00:27.410Z,144.00
2023-03-11T06:01:27.351Z,152.00
2023-03-11T06:02:27.381Z,160.00
2023-03-11T06:03:27.367Z,156.00
2023-03-11T06:04:27.490Z,156.00
2023-03-11T06:05:27.450Z,152.00
2023-03-11T06:06:27.321Z,148.00
2023-03-11T06:07:27.293Z,152.00
2023-03-11T06:08:27.251Z,156.00
2023-03-11T06:09:27.228Z,160.00
2023-03-11T06:10:27.245Z,164.00
2023-03-11T06:11:27.257Z,172.00
2023-03-11T06:12:27.216Z,176.00
2023-03-11T06:13:27.200Z,176.00
2023-03-11T06:14:27.198Z,188.00
2023-03-11T06:15:27.158Z,200.00
2023-03-11T06:16:27.263Z,208.00
2023-03-11T06:17:29.346Z,224.00
2023-03-11T06:18:27.149Z,240.00
2023-03-11T06:19:27.273Z,248.00
2023-03-11T06:20:27.065Z,260.00
2023-03-11T06:21:27.118Z,260.00
2023-03-11T06:22:27.048Z,260.00
2023-03-11T06:23:27.059Z,260.00
2023-03-11T06:24:27.026Z,256.00
2023-03-11T06:25:27.003Z,260.00
2023-03-11T06:26:26.981Z,252.00
2023-03-11T06:27:26.968Z,248.00
2023-03-11T06:28:27.016Z,244.00
2023-03-11T06:29:26.956Z,240.00
2023-03-11T06:30:26.981Z,248.00
2023-03-11T06:31:27.046Z,260.00
2023-03-11T06:32:26.975Z,284.00
2023-03-11T06:33:26.869Z,304.00
2023-03-11T06:34:26.849Z,320.00
2023-03-11T06:35:26.853Z,320.00
2023-03-11T06:36:26.852Z,320.00
2023-03-11T06:37:26.822Z,324.00
2023-03-11T06:38:26.843Z,332.00
2023-03-11T06:39:26.840Z,344.00
2023-03-11T06:40:26.792Z,356.00
2023-03-11T06:41:27.003Z,360.00
2023-03-11T06:42:26.879Z,372.00
2023-03-11T06:43:26.932Z,388.00
2023-03-11T06:44:26.700Z,404.00
2023-03-11T06:45:26.730Z,416.00
2023-03-11T06:46:26.720Z,444.00
2023-03-11T06:47:26.719Z,468.00
2023-03-11T06:48:26.695Z,500.00
2023-03-11T06:49:26.611Z,556.00
2023-03-11T06:50:26.646Z,604.00
2023-03-11T06:51:26.596Z,640.00
2023-03-11T06:52:26.642Z,680.00
2023-03-11T06:53:26.594Z,712.00
2023-03-11T06:54:26.550Z,748.00
2023-03-11T06:55:26.547Z,780.00
2023-03-11T06:56:26.522Z,788.00
2023-03-11T06:57:26.538Z,808.00
2023-03-11T06:58:26.531Z,828.00
2023-03-11T06:59:26.705Z,880.00
2023-03-11T07:00:26.468Z,872.00
2023-03-11T07:01:26.520Z,868.00
2023-03-11T07:02:26.484Z,880.00
2023-03-11T07:03:26.440Z,896.00
2023-03-11T07:04:26.470Z,920.00
2023-03-11T07:05:26.415Z,928.00
2023-03-11T07:06:26.395Z,948.00
2023-03-11T07:07:26.352Z,992.00
2023-03-11T07:08:26.370Z,1032.00
2023-03-11T07:09:26.357Z,1056.00
2023-03-11T07:10:26.370Z,1096.00
2023-03-11T07:11:26.340Z,1120.00
2023-03-11T07:12:26.289Z,1192.00
2023-03-11T07:13:26.285Z,1192.00
2023-03-11T07:14:26.251Z,1212.00
2023-03-11T07:15:26.242Z,1272.00
2023-03-11T07:16:26.303Z,1396.00
2023-03-11T07:17:26.207Z,1396.00
2023-03-11T07:18:26.203Z,1336.00
2023-03-11T07:19:26.198Z,1404.00
2023-03-11T07:20:26.207Z,1476.00
2023-03-11T07:21:26.144Z,1480.00
2023-03-11T07:22:26.153Z,1580.00
2023-03-11T07:23:26.158Z,1568.00
2023-03-11T07:24:26.104Z,1612.00
2023-03-11T07:25:26.123Z,1628.00
2023-03-11T07:26:26.104Z,1648.00
2023-03-11T07:27:26.062Z,1744.00
2023-03-11T07:28:26.058Z,1968.00
2023-03-11T07:29:26.050Z,2296.00
2023-03-11T07:30:26.025Z,2744.00
2023-03-11T07:31:26.060Z,3460.00
2023-03-11T07:32:26.048Z,5276.00
2023-03-11T07:33:25.970Z,6968.00
2023-03-11T07:34:25.962Z,5820.00
2023-03-11T07:35:25.952Z,5708.00
2023-03-11T07:36:25.968Z,8188.00
2023-03-11T07:37:25.922Z,9148.00
2023-03-11T07:38:26.107Z,10240.00
2023-03-11T07:39:25.884Z,17312.00
2023-03-11T07:40:25.871Z,72864.00
2023-03-11T07:41:25.857Z,80256.00
2023-03-11T07:42:25.852Z,84800.00
2023-03-11T07:43:25.840Z,86368.00
2023-03-11T07:44:25.815Z,88768.00
2023-03-11T07:45:25.809Z,45760.00
2023-03-11T07:46:25.873Z,24352.00
2023-03-11T07:47:25.781Z,15192.00
2023-03-11T07:48:25.808Z,17984.00
2023-03-11T07:49:25.799Z,19264.00
2023-03-11T07:50:25.753Z,21824.00
2023-03-11T07:51:25.964Z,40992.00
2023-03-11T07:52:25.749Z,75904.00
2023-03-11T07:53:25.772Z,77344.00
2023-03-11T07:54:26.117Z,88160.00
2023-03-11T07:55:25.903Z,26240.00
2023-03-11T07:56:25.720Z,63168.00
2023-03-11T07:57:25.713Z,87360.00
2023-03-11T07:58:25.683Z,81696.00
2023-03-11T07:59:25.670Z,81888.00
2023-03-11T08:00:25.717Z,46496.00
2023-03-11T08:01:25.659Z,86784.00
2023-03-11T08:02:25.676Z,94048.00
2023-03-11T08:03:25.723Z,95296.00
2023-03-11T08:04:25.648Z,55552.00
2023-03-11T08:05:25.639Z,17760.00
2023-03-11T08:06:25.656Z,19168.00
2023-03-11T08:07:25.668Z,63904.00
2023-03-11T08:08:25.624Z,56288.00
2023-03-11T08:09:25.658Z,22624.00
2023-03-11T08:10:25.620Z,50496.00
2023-03-11T08:11:25.631Z,37344.00
2023-03-11T08:12:25.619Z,12672.00
2023-03-11T08:13:25.584Z,29472.00
2023-03-11T08:14:25.623Z,17952.00
2023-03-11T08:15:25.628Z,23840.00
2023-03-11T08:16:25.565Z,23360.00
2023-03-11T08:17:25.578Z,26784.00
2023-03-11T08:18:25.565Z,22464.00
2023-03-11T08:19:25.548Z,14240.00
2023-03-11T08:20:25.557Z,13936.00
2023-03-11T08:21:25.562Z,13916.00
2023-03-11T08:22:25.755Z,10084.00
2023-03-11T08:23:25.535Z,8872.00
2023-03-11T08:24:25.537Z,12228.00
2023-03-11T08:25:25.484Z,12924.00
2023-03-11T08:26:25.492Z,12680.00
2023-03-11T08:27:25.500Z,13592.00
2023-03-11T08:28:25.520Z,17920.00
2023-03-11T08:29:25.478Z,20672.00
2023-03-11T08:30:25.429Z,9588.00
2023-03-11T08:31:25.568Z,18752.00
2023-03-11T08:32:25.493Z,18016.00
2023-03-11T08:33:25.432Z,35872.00
2023-03-11T08:34:25.405Z,92448.00
2023-03-11T08:35:25.488Z,6648.00
2023-03-11T08:36:25.382Z,4044.00
2023-03-11T08:37:25.401Z,3104.00
2023-03-11T08:38:25.371Z,2868.00
2023-03-11T08:39:25.391Z,2620.00
2023-03-11T08:40:25.392Z,2236.00
2023-03-11T08:41:25.368Z,2092.00
2023-03-11T08:42:25.373Z,2180.00
2023-03-11T08:43:25.336Z,2308.00
2023-03-11T08:44:25.315Z,2492.00
2023-03-11T08:45:25.302Z,2772.00
2023-03-11T08:46:25.465Z,3448.00
2023-03-11T08:47:25.295Z,7220.00
2023-03-11T08:48:25.266Z,2692.00
2023-03-11T08:49:25.247Z,2168.00
2023-03-11T08:50:25.434Z,2376.00
2023-03-11T08:51:25.227Z,2536.00
2023-03-11T08:52:25.218Z,2344.00
2023-03-11T08:53:25.219Z,2204.00
2023-03-11T08:54:25.193Z,2492.00
2023-03-11T08:55:25.184Z,3456.00
2023-03-11T08:56:25.185Z,3804.00
2023-03-11T08:57:25.148Z,2704.00
2023-03-11T08:58:25.135Z,2592.00
2023-03-11T08:59:25.101Z,2904.00
2023-03-11T09:00:25.093Z,4836.00
2023-03-11T09:01:25.095Z,14784.00
2023-03-11T09:02:25.144Z,7944.00
2023-03-11T09:03:25.060Z,5232.00
2023-03-11T09:04:25.112Z,2576.00
2023-03-11T09:05:25.071Z,2216.00
2023-03-11T09:06:25.041Z,2420.00
2023-03-11T09:07:25.021Z,2472.00
2023-03-11T09:08:25.056Z,2640.00
2023-03-11T09:09:24.989Z,2896.00
2023-03-11T09:10:24.977Z,2992.00
2023-03-11T09:11:24.957Z,2400.00
2023-03-11T09:12:24.973Z,2664.00
2023-03-11T09:13:24.958Z,2276.00
2023-03-11T09:14:24.941Z,2184.00
2023-03-11T09:15:24.913Z,2408.00
2023-03-11T09:16:25.074Z,2416.00
2023-03-11T09:17:25.107Z,2316.00
2023-03-11T09:18:25.073Z,2280.00
2023-03-11T09:19:24.888Z,2288.00
2023-03-11T09:20:24.905Z,2128.00
2023-03-11T09:21:24.825Z,2008.00
2023-03-11T09:22:24.829Z,2008.00
2023-03-11T09:23:25.016Z,2004.00
2023-03-11T09:24:24.837Z,1956.00
2023-03-11T09:25:24.793Z,1900.00
2023-03-11T09:26:24.807Z,1848.00
2023-03-11T09:27:24.799Z,1856.00
2023-03-11T09:28:24.770Z,1920.00
2023-03-11T09:29:24.724Z,1980.00
2023-03-11T09:30:24.900Z,1948.00
2023-03-11T09:31:24.811Z,1824.00
2023-03-11T09:32:24.752Z,1820.00
2023-03-11T09:33:24.717Z,1896.00
2023-03-11T09:34:24.698Z,1932.00
2023-03-11T09:35:24.670Z,1920.00
2023-03-11T09:36:24.706Z,1936.00
2023-03-11T09:37:24.650Z,1904.00
2023-03-11T09:38:24.640Z,1888.00
2023-03-11T09:39:24.620Z,1836.00
2023-03-11T09:40:24.593Z,1800.00
2023-03-11T09:41:24.597Z,1784.00
2023-03-11T09:42:24.586Z,1724.00
2023-03-11T09:43:24.555Z,1688.00
2023-03-11T09:44:24.598Z,1664.00
2023-03-11T09:45:24.509Z,1656.00
2023-03-11T09:46:24.621Z,1704.00
2023-03-11T09:47:24.528Z,1740.00
2023-03-11T09:48:24.499Z,1824.00
2023-03-11T09:49:24.456Z,2028.00
2023-03-11T09:50:24.510Z,2212.00
2023-03-11T09:51:24.447Z,2464.00
2023-03-11T09:52:24.430Z,2704.00
2023-03-11T09:53:24.507Z,2944.00
2023-03-11T09:54:24.456Z,3428.00
2023-03-11T09:55:24.385Z,3772.00
2023-03-11T09:56:24.397Z,3884.00
2023-03-11T09:57:24.372Z,3532.00
2023-03-11T09:58:24.346Z,3436.00
2023-03-11T09:59:24.522Z,3260.00
2023-03-11T10:00:24.342Z,3284.00
2023-03-11T10:01:24.288Z,3552.00
2023-03-11T10:02:24.393Z,3588.00
2023-03-11T10:03:24.418Z,3108.00
2023-03-11T10:04:24.296Z,2576.00
2023-03-11T10:05:24.333Z,2340.00
2023-03-11T10:06:24.234Z,2284.00
2023-03-11T10:07:24.216Z,2160.00
2023-03-11T10:08:24.204Z,2108.00
2023-03-11T10:09:24.237Z,2128.00
2023-03-11T10:10:24.274Z,2212.00
2023-03-11T10:11:24.202Z,2240.00
2023-03-11T10:12:24.181Z,2324.00
2023-03-11T10:13:24.147Z,2264.00
2023-03-11T10:14:24.149Z,2188.00
2023-03-11T10:15:24.098Z,2152.00
2023-03-11T10:16:24.192Z,2188.00
2023-03-11T10:17:24.114Z,2240.00
2023-03-11T10:18:24.098Z,2340.00
2023-03-11T10:19:24.087Z,2424.00
2023-03-11T10:20:24.046Z,2408.00
2023-03-11T10:21:25.676Z,2368.00
2023-03-11T10:22:24.019Z,2288.00
2023-03-11T10:23:24.063Z,2212.00
2023-03-11T10:24:24.031Z,2028.00
2023-03-11T10:25:24.008Z,1856.00
2023-03-11T10:26:23.985Z,1652.00
2023-03-11T10:27:23.962Z,1476.00
2023-03-11T10:28:23.931Z,1380.00
2023-03-11T10:29:23.943Z,1316.00
2023-03-11T10:30:24.158Z,1200.00
2023-03-11T10:31:23.976Z,1032.00
2023-03-11T10:32:23.941Z,936.00
2023-03-11T10:33:23.900Z,916.00
2023-03-11T10:34:23.875Z,888.00
2023-03-11T10:35:23.927Z,880.00
2023-03-11T10:36:24.078Z,940.00
2023-03-11T10:37:23.839Z,964.00
2023-03-11T10:38:23.847Z,964.00
2023-03-11T10:39:23.792Z,996.00
2023-03-11T10:40:24.200Z,1016.00
2023-03-11T10:41:23.779Z,1028.00
2023-03-11T10:42:23.968Z,1016.00
2023-03-11T10:43:23.782Z,1048.00
2023-03-11T10:44:23.720Z,1100.00
2023-03-11T10:45:23.719Z,1116.00
2023-03-11T10:46:23.744Z,1104.00
2023-03-11T10:47:23.671Z,1124.00
2023-03-11T10:48:23.740Z,1088.00
2023-03-11T10:49:23.712Z,1076.00
2023-03-11T10:50:23.682Z,1112.00
2023-03-11T10:51:23.659Z,1180.00
2023-03-11T10:52:23.630Z,1256.00
2023-03-11T10:53:23.629Z,1260.00
2023-03-11T10:54:23.576Z,1336.00
2023-03-11T10:55:23.606Z,1348.00
2023-03-11T10:56:23.565Z,1340.00
2023-03-11T10:57:23.562Z,1416.00
2023-03-11T10:58:23.541Z,1412.00
2023-03-11T10:59:23.549Z,1376.00
2023-03-11T11:00:23.528Z,1360.00
2023-03-11T11:01:23.593Z,1380.00
2023-03-11T11:02:23.529Z,1456.00
2023-03-11T11:03:23.533Z,1528.00
2023-03-11T11:04:23.548Z,1604.00
2023-03-11T11:05:23.435Z,1688.00
2023-03-11T11:06:23.435Z,1716.00
2023-03-11T11:07:23.420Z,1748.00
2023-03-11T11:08:23.415Z,1708.00
2023-03-11T11:09:26.357Z,1704.00
2023-03-11T11:10:23.391Z,1668.00
2023-03-11T11:11:23.345Z,1556.00
2023-03-11T11:12:23.379Z,1544.00
2023-03-11T11:13:23.316Z,1544.00
2023-03-11T11:14:23.315Z,1584.00
2023-03-11T11:15:23.298Z,1632.00
2023-03-11T11:16:23.389Z,1684.00
2023-03-11T11:17:23.459Z,1700.00
2023-03-11T11:18:23.272Z,1648.00
2023-03-11T11:19:23.233Z,1672.00
2023-03-11T11:20:23.268Z,1680.00
2023-03-11T11:21:23.228Z,1676.00
2023-03-11T11:22:23.212Z,1712.00
2023-03-11T11:23:23.211Z,1752.00
2023-03-11T11:24:23.199Z,1780.00
2023-03-11T11:25:23.239Z,1796.00
2023-03-11T11:26:23.174Z,1776.00
2023-03-11T11:27:23.139Z,1776.00
2023-03-11T11:28:23.147Z,1800.00
2023-03-11T11:29:23.122Z,1828.00
2023-03-11T11:30:23.123Z,1836.00
2023-03-11T11:31:23.126Z,1836.00
2023-03-11T11:32:23.100Z,1832.00
2023-03-11T11:33:23.077Z,1832.00
2023-03-11T11:34:23.190Z,1808.00
2023-03-11T11:35:23.132Z,1756.00
2023-03-11T11:36:23.064Z,1740.00
2023-03-11T11:37:23.003Z,1772.00
2023-03-11T11:38:23.020Z,1816.00
2023-03-11T11:39:22.999Z,1864.00
2023-03-11T11:40:22.983Z,1920.00
2023-03-11T11:41:22.940Z,1940.00
2023-03-11T11:42:22.936Z,1956.00
2023-03-11T11:43:22.913Z,1948.00
2023-03-11T11:44:22.905Z,1948.00
2023-03-11T11:45:22.876Z,1948.00
2023-03-11T11:46:23.024Z,1964.00
2023-03-11T11:47:22.853Z,1976.00
2023-03-11T11:48:22.883Z,2016.00
2023-03-11T11:49:23.065Z,2016.00
2023-03-11T11:50:23.016Z,2036.00
2023-03-11T11:51:22.828Z,2056.00
2023-03-11T11:52:22.803Z,2060.00
2023-03-11T11:53:22.782Z,2056.00
2023-03-11T11:54:22.777Z,2068.00
2023-03-11T11:55:22.744Z,2068.00
2023-03-11T11:56:22.720Z,2024.00
2023-03-11T11:57:22.703Z,1960.00
2023-03-11T11:58:22.723Z,1916.00
2023-03-11T11:59:22.673Z,1892.00
2023-03-11T12:00:22.661Z,1872.00
2023-03-11T12:01:22.640Z,1868.00
2023-03-11T12:02:22.627Z,1852.00
2023-03-11T12:03:22.677Z,1832.00
2023-03-11T12:04:22.620Z,1860.00
2023-03-11T12:05:22.666Z,1876.00
2023-03-11T12:06:22.585Z,1888.00
2023-03-11T12:07:22.569Z,1912.00
2023-03-11T12:08:22.606Z,1932.00
2023-03-11T12:09:22.542Z,1976.00
2023-03-11T12:10:24.043Z,2052.00
2023-03-11T12:11:22.516Z,2136.00
2023-03-11T12:12:22.508Z,2204.00
2023-03-11T12:13:22.487Z,2276.00
2023-03-11T12:14:22.471Z,2368.00
2023-03-11T12:15:22.453Z,2444.00
2023-03-11T12:16:22.449Z,2524.00
2023-03-11T12:17:22.632Z,2576.00
2023-03-11T12:18:22.417Z,2648.00
2023-03-11T12:19:22.432Z,2796.00
2023-03-11T12:20:22.403Z,2900.00
2023-03-11T12:21:22.406Z,2984.00
2023-03-11T12:22:22.390Z,2944.00
2023-03-11T12:23:22.354Z,2864.00
2023-03-11T12:24:22.370Z,2836.00
2023-03-11T12:25:22.433Z,2844.00
2023-03-11T12:26:22.372Z,2932.00
2023-03-11T12:27:22.303Z,3076.00
2023-03-11T12:28:22.280Z,3172.00
2023-03-11T12:29:22.292Z,3308.00
2023-03-11T12:30:22.284Z,3636.00
2023-03-11T12:31:22.337Z,3420.00
2023-03-11T12:32:22.289Z,3456.00
2023-03-11T12:33:22.244Z,3592.00
2023-03-11T12:34:22.231Z,3620.00
2023-03-11T12:35:22.216Z,3744.00
2023-03-11T12:36:22.191Z,3672.00
2023-03-11T12:37:22.202Z,3692.00
2023-03-11T12:38:22.196Z,3740.00